Country
Station

 

Weather  for  Santa Maria, Santa Maria Public Airport  -  United States    United States

  
14 °C (57 °F)
    
 
 

Current METAR for Santa Maria, Santa Maria Public Airport is :

KSMX 171105Z AUTO 32003KT 8SM OVC005 14/13 A2999 RMK AO2 T01440128 $

 

This is a report for Santa Maria, Santa Maria Public Airport - United States.
 
The report was made 6 minutes ago, at 11:05 UTC .
The wind was blowing at a speed of 1.5 meters per second (3.5 miles per hour) from northwest (320°).
 
The temperature was 14 °C (57 °F), with a dew-point at 13 °C (55 °F).
The atmospheric pressure was 1016 hPa (29.99 inHg).
The relative humidity was 93.7%.
 
The sky was overcast from a height of 152 meter (500 feet)
 
The overall visibility was 12.9 kilometers (8.0 miles).
 

 
 
 
 

Country :   A   B   C   D   E   F   G   H   I   J   K   L   M   N   O   P   Q   R   S   T   U   V   W   Y   Z

 

Site Info  |  Disclaimer  |  Credits  |  Privacy
Contact us  |  Add to favorites
© 2013-2018 METARs - All rights reserved